Time;durP1;ratioP1;P1;durP2;ratioP2;P2;SDS_P1;SDS_P2;PMS_P1;PMS_P2;Temp;Humidity;BMP_temperature;BMP_pressure;BME280_temperature;BME280_humidity;BME280_pressure;Samples;Min_cycle;Max_cycle;Signal;HPM_P1;HPM_P2
2022/01/23 00:04:07;;;;;;;4.13;1.88;;;6.40;99.90;;;;;;20575307;28;20042;-45
2022/01/23 00:34:12;;;;;;;7.07;2.15;;;6.40;99.90;;;;;;20595414;28;20046;-45
2022/01/23 00:44:13;;;;;;;5.20;2.22;;;6.40;99.90;;;;;;20592758;28;20066;-45
2022/01/23 00:54:13;;;;;;;6.70;2.10;;;6.40;99.90;;;;;;20589091;28;20043;-44
2022/01/23 01:04:14;;;;;;;6.38;2.03;;;6.50;99.90;;;;;;20590506;28;20078;-45
2022/01/23 01:34:49;;;;;;;5.22;2.33;;;6.60;99.90;;;;;;20548188;28;20433;-45
2022/01/23 01:44:49;;;;;;;6.00;2.58;;;6.60;99.90;;;;;;20582262;28;20367;-45
2022/01/23 01:54:59;;;;;;;9.52;2.78;;;6.60;99.90;;;;;;20590810;28;20435;-45
2022/01/23 02:50:36;;;;;;;7.20;3.17;;;6.60;99.90;;;;;;20586102;28;20043;-45
2022/01/23 02:56:39;;;;;;;5.43;2.20;;;6.50;99.90;;;;;;20582029;28;20286;-45
2022/01/23 03:06:56;;;;;;;7.75;2.33;;;6.50;99.90;;;;;;20565764;28;20046;-45
2022/01/23 03:37:36;;;;;;;5.50;2.28;;;6.60;99.90;;;;;;21741200;23;20045;-45
2022/01/23 03:47:39;;;;;;;5.38;2.50;;;6.50;99.90;;;;;;20728146;28;20036;-45
2022/01/23 03:57:40;;;;;;;6.68;2.70;;;6.50;99.90;;;;;;20734506;28;20124;-45
2022/01/23 04:07:41;;;;;;;4.20;2.20;;;6.60;99.90;;;;;;20728026;28;20500;-45
2022/01/23 05:08:58;;;;;;;3.30;1.30;;;6.40;99.90;;;;;;20710108;28;20495;-45
2022/01/23 05:18:59;;;;;;;3.40;1.10;;;6.40;99.90;;;;;;20746489;28;20709;-45
2022/01/23 05:29:00;;;;;;;2.45;1.38;;;6.40;99.90;;;;;;20730228;28;20314;-45
2022/01/23 05:39:01;;;;;;;3.87;1.23;;;6.40;99.90;;;;;;20741077;28;20054;-45
2022/01/23 05:49:02;;;;;;;6.25;1.58;;;6.40;99.90;;;;;;20732932;28;20080;-45
2022/01/23 05:59:03;;;;;;;2.75;1.08;;;6.40;99.90;;;;;;20719898;28;20045;-45
2022/01/23 06:09:04;;;;;;;6.60;1.38;;;6.40;99.90;;;;;;20723777;28;20042;-46
2022/01/23 06:19:05;;;;;;;3.80;1.65;;;6.40;99.90;;;;;;20733706;28;20041;-45
2022/01/23 06:29:06;;;;;;;5.00;1.33;;;6.30;99.90;;;;;;20735628;28;20169;-46
2022/01/23 06:39:09;;;;;;;4.18;1.60;;;6.40;99.90;;;;;;20718793;28;20037;-45
2022/01/23 06:49:10;;;;;;;2.95;1.23;;;6.30;99.90;;;;;;20730563;28;20095;-45
2022/01/23 06:59:11;;;;;;;6.68;2.33;;;6.30;99.90;;;;;;20726402;28;20123;-45
2022/01/23 07:09:12;;;;;;;6.45;2.40;;;6.30;99.90;;;;;;20725344;28;20045;-45
2022/01/23 07:19:12;;;;;;;4.33;1.77;;;6.40;99.90;;;;;;20716259;28;20420;-45
2022/01/23 07:29:15;;;;;;;5.30;1.98;;;6.30;99.90;;;;;;20723537;28;20304;-45
2022/01/23 07:39:16;;;;;;;5.07;2.05;;;6.40;99.90;;;;;;20733996;28;20049;-45
2022/01/23 07:49:16;;;;;;;7.38;2.30;;;6.40;99.90;;;;;;20718159;28;20485;-45
2022/01/23 07:59:17;;;;;;;8.85;2.15;;;6.40;99.90;;;;;;20724380;28;20052;-45
2022/01/23 08:09:18;;;;;;;9.57;3.47;;;6.40;99.90;;;;;;20721713;28;20121;-45
2022/01/23 08:19:18;;;;;;;6.30;2.47;;;6.40;99.90;;;;;;20707113;28;20054;-45
2022/01/23 08:29:19;;;;;;;8.23;3.17;;;6.40;99.90;;;;;;20694535;28;20064;-45
2022/01/23 08:39:24;;;;;;;10.82;3.35;;;6.50;99.90;;;;;;20696228;28;20371;-45
2022/01/23 08:49:27;;;;;;;14.48;4.03;;;6.50;99.90;;;;;;20738307;28;20239;-45
2022/01/23 08:59:28;;;;;;;8.00;3.53;;;6.60;99.90;;;;;;20735948;28;20110;-45
2022/01/23 09:09:31;;;;;;;9.88;4.18;;;6.60;99.90;;;;;;20740883;28;20128;-45
2022/01/23 09:19:33;;;;;;;11.38;5.15;;;6.60;99.90;;;;;;20736100;28;20301;-45
2022/01/23 09:29:37;;;;;;;14.05;4.40;;;6.70;99.90;;;;;;20738513;28;20029;-45
2022/01/23 09:39:40;;;;;;;9.05;3.58;;;6.70;99.90;;;;;;20728535;28;20046;-45
2022/01/23 09:49:43;;;;;;;9.10;4.18;;;6.70;99.90;;;;;;20736695;28;20048;-45
2022/01/23 09:59:44;;;;;;;11.13;4.57;;;6.80;99.90;;;;;;20807644;28;20249;-45
2022/01/23 10:09:52;;;;;;;17.92;6.47;;;6.80;99.90;;;;;;20799722;28;20120;-45
2022/01/23 10:19:53;;;;;;;10.80;4.75;;;6.80;99.90;;;;;;20783906;28;20046;-45
2022/01/23 10:29:54;;;;;;;11.15;5.07;;;6.90;99.90;;;;;;20754543;28;20156;-46
2022/01/23 10:39:57;;;;;;;15.67;5.47;;;6.90;99.90;;;;;;20753482;28;20113;-45
2022/01/23 10:50:02;;;;;;;17.58;5.60;;;7.00;99.90;;;;;;20800139;28;20500;-46
2022/01/23 11:00:06;;;;;;;15.05;5.57;;;7.00;99.90;;;;;;20790142;28;20360;-45
2022/01/23 11:10:21;;;;;;;13.40;4.95;;;7.10;99.90;;;;;;20791707;28;20036;-45
2022/01/23 11:20:29;;;;;;;16.63;5.28;;;7.00;99.90;;;;;;20772908;28;20335;-45
2022/01/23 11:30:42;;;;;;;14.68;5.47;;;7.10;99.90;;;;;;20741691;28;20045;-45
2022/01/23 11:51:19;;;;;;;12.80;5.03;;;7.20;99.90;;;;;;20728653;28;20030;-45
2022/01/23 12:01:26;;;;;;;13.55;5.75;;;7.20;99.90;;;;;;20729786;28;20112;-45
2022/01/23 12:11:53;;;;;;;12.68;5.15;;;7.20;99.90;;;;;;20724968;28;20056;-45
2022/01/23 12:21:56;;;;;;;19.70;5.40;;;7.30;99.90;;;;;;20744057;28;20056;-45
2022/01/23 12:32:18;;;;;;;9.32;3.60;;;7.30;99.90;;;;;;20739718;28;20057;-45
2022/01/23 12:42:19;;;;;;;15.27;5.70;;;7.40;99.90;;;;;;20744290;28;20041;-45
2022/01/23 12:52:23;;;;;;;10.48;3.95;;;7.50;99.90;;;;;;20743608;28;20619;-45
2022/01/23 13:02:28;;;;;;;13.95;5.50;;;7.50;99.90;;;;;;20744157;28;20132;-45
2022/01/23 13:12:51;;;;;;;15.45;4.55;;;7.60;99.90;;;;;;20710441;28;20089;-45
2022/01/23 13:33:25;;;;;;;12.48;3.67;;;7.70;99.90;;;;;;20727068;28;20041;-46
2022/01/23 13:57:37;;;;;;;8.73;3.78;;;7.70;99.90;;;;;;20727480;28;20046;-45
2022/01/23 14:04:44;;;;;;;9.70;3.90;;;7.70;99.90;;;;;;20782358;28;20048;-45
2022/01/23 14:15:09;;;;;;;9.82;3.35;;;7.60;99.90;;;;;;20793626;28;20153;-45
2022/01/23 14:25:16;;;;;;;13.23;5.03;;;7.60;99.90;;;;;;20798881;28;20052;-45
2022/01/23 14:35:28;;;;;;;15.02;4.30;;;7.70;99.90;;;;;;20788833;28;20503;-45
2022/01/23 14:45:32;;;;;;;8.32;4.05;;;7.70;99.90;;;;;;20825505;28;20498;-45
2022/01/23 14:55:42;;;;;;;11.35;3.92;;;7.70;99.90;;;;;;20831112;28;20064;-45
2022/01/23 15:05:42;;;;;;;14.63;4.50;;;7.60;99.90;;;;;;20826538;28;20049;-45
2022/01/23 15:15:43;;;;;;;11.75;4.50;;;7.60;99.90;;;;;;20836056;28;20040;-45
2022/01/23 15:25:45;;;;;;;10.65;3.80;;;7.60;99.90;;;;;;20817905;28;20041;-45
2022/01/23 15:35:49;;;;;;;13.77;3.28;;;7.60;99.90;;;;;;20795680;28;20498;-45
2022/01/23 15:45:52;;;;;;;8.50;3.15;;;7.50;99.90;;;;;;20776305;28;20051;-46
2022/01/23 15:55:53;;;;;;;10.43;3.45;;;7.50;99.90;;;;;;20780075;28;20044;-45
2022/01/23 16:05:55;;;;;;;11.50;4.38;;;7.40;99.90;;;;;;20832616;28;20044;-45
2022/01/23 16:15:56;;;;;;;9.13;4.22;;;7.40;99.90;;;;;;20775490;28;20057;-45
2022/01/23 16:25:56;;;;;;;9.52;3.63;;;7.30;99.90;;;;;;20798480;28;20513;-45
2022/01/23 16:35:57;;;;;;;8.60;3.30;;;7.20;99.90;;;;;;20783713;28;20513;-45
2022/01/23 16:46:00;;;;;;;11.05;4.30;;;7.20;99.90;;;;;;20811562;28;20037;-45
2022/01/23 16:56:01;;;;;;;18.45;5.38;;;7.20;99.90;;;;;;20801940;28;20041;-45
2022/01/23 17:06:02;;;;;;;11.65;4.60;;;7.10;99.90;;;;;;20822722;28;20079;-45
2022/01/23 17:16:03;;;;;;;13.32;6.18;;;7.10;99.90;;;;;;20828118;28;20045;-45
2022/01/23 17:26:04;;;;;;;12.75;5.25;;;7.10;99.90;;;;;;20824705;28;20083;-45
2022/01/23 17:36:05;;;;;;;12.35;5.75;;;7.00;99.90;;;;;;20833881;28;20825;-45
2022/01/23 17:46:07;;;;;;;14.77;5.55;;;7.00;99.90;;;;;;20814117;28;20528;-45
2022/01/23 17:56:08;;;;;;;14.57;6.55;;;7.00;99.90;;;;;;20827018;28;20049;-45
2022/01/23 18:06:43;;;;;;;15.73;5.72;;;6.90;99.90;;;;;;20820091;28;20042;-45
2022/01/23 18:16:36;;;;;;;13.48;6.65;;;6.90;99.90;;;;;;20805487;28;20309;-45
2022/01/23 18:26:39;;;;;;;17.77;7.35;;;6.80;99.90;;;;;;20827963;28;20048;-45
2022/01/23 18:36:40;;;;;;;21.75;8.15;;;6.80;99.90;;;;;;20853901;28;20053;-45
2022/01/23 18:46:42;;;;;;;16.00;7.18;;;6.80;99.90;;;;;;20854293;28;20037;-45
2022/01/23 18:57:19;;;;;;;20.95;7.32;;;6.70;99.90;;;;;;20831149;28;20042;-45
2022/01/23 19:07:19;;;;;;;21.73;9.77;;;6.70;99.90;;;;;;20837785;28;20030;-45
2022/01/23 19:17:20;;;;;;;18.85;6.65;;;6.70;99.90;;;;;;20867000;28;20316;-45
2022/01/23 19:27:25;;;;;;;18.80;6.63;;;6.70;99.90;;;;;;20849124;28;20037;-45
2022/01/23 19:37:25;;;;;;;14.63;5.32;;;6.70;99.90;;;;;;20833272;28;20351;-45
2022/01/23 19:48:17;;;;;;;14.75;5.25;;;6.70;99.90;;;;;;20858050;28;20053;-45
2022/01/23 19:57:48;;;;;;;6.85;3.13;;;6.60;99.90;;;;;;20837507;28;20037;-45
2022/01/23 20:07:49;;;;;;;12.37;4.33;;;6.60;99.90;;;;;;20849860;28;20452;-45
2022/01/23 20:17:51;;;;;;;9.98;3.67;;;6.70;99.90;;;;;;20857458;28;20286;-45
2022/01/23 20:27:51;;;;;;;10.80;2.88;;;6.60;99.90;;;;;;20853097;28;20503;-45
2022/01/23 20:37:54;;;;;;;8.85;3.65;;;6.70;99.90;;;;;;20850100;28;20115;-44
2022/01/23 20:47:56;;;;;;;7.40;3.58;;;6.70;99.90;;;;;;20863167;28;20037;-45
2022/01/23 20:57:57;;;;;;;11.25;3.65;;;6.80;99.90;;;;;;20871380;28;20068;-46
2022/01/23 21:07:57;;;;;;;6.90;2.88;;;6.80;99.90;;;;;;20845458;28;20033;-45
2022/01/23 21:48:40;;;;;;;7.72;3.75;;;6.70;99.90;;;;;;20813803;28;20505;-45
2022/01/23 21:58:41;;;;;;;17.73;6.50;;;6.70;99.90;;;;;;20807834;28;20470;-45
2022/01/23 22:08:43;;;;;;;23.43;7.23;;;6.80;99.90;;;;;;20806394;28;21881;-45
2022/01/23 22:18:46;;;;;;;19.95;8.00;;;6.80;99.90;;;;;;20803156;28;20084;-45
2022/01/23 22:28:46;;;;;;;17.70;5.97;;;6.60;99.90;;;;;;20809928;28;20418;-45
2022/01/23 22:38:47;;;;;;;20.65;8.32;;;6.60;99.90;;;;;;20796578;28;20391;-45
2022/01/23 22:48:48;;;;;;;16.90;6.20;;;6.50;99.90;;;;;;20794978;28;20042;-45
2022/01/23 22:58:49;;;;;;;19.80;7.77;;;6.40;99.90;;;;;;20800943;28;20343;-45
2022/01/23 23:08:50;;;;;;;20.98;8.02;;;6.40;99.90;;;;;;20797795;28;20280;-45
2022/01/23 23:18:57;;;;;;;18.67;6.10;;;6.50;99.90;;;;;;20798635;28;20085;-45
2022/01/23 23:28:59;;;;;;;16.25;6.07;;;6.50;99.90;;;;;;20785433;28;20041;-45
2022/01/23 23:39:00;;;;;;;10.05;3.85;;;6.50;99.90;;;;;;20794299;28;20714;-45
2022/01/23 23:59:20;;;;;;;11.45;3.83;;;6.40;99.90;;;;;;20789849;28;20060;-45
